Terminal Aerodrome Forecast
Issued by NWS

Home | Current Version | Previous Version | Text Only | Print | Product List | Glossary On
Versions: 1 2 3 4 5 6 7 8 9 10 11 12 13 14 15 16 17
000
FTUS45 KABQ 240152 AAB
TAFGUP
TAF AMD
KGUP 240152Z 2402/2424 25018KT P6SM VCSH SCT035 BKN060
      TEMPO 2402/2405 2SM -SHSN BKN015
     FM240700 24019KT P6SM SCT035 BKN050
     FM241200 26018G28KT P6SM SKC=

USA.gov is the U.S. government's official web portal to all federal, state and local government web resources and services.